createdAt,value
2022-11-06T00:01:44.231Z,6.03
2022-11-06T00:04:47.243Z,6.62
2022-11-06T00:07:50.146Z,5.93
2022-11-06T00:10:53.700Z,5.70
2022-11-06T00:13:56.787Z,5.07
2022-11-06T00:16:59.842Z,6.43
2022-11-06T00:20:02.893Z,7.53
2022-11-06T00:23:05.961Z,6.25
2022-11-06T00:26:14.758Z,5.75
2022-11-06T00:29:17.734Z,6.30
2022-11-06T00:32:20.437Z,6.62
2022-11-06T00:35:23.510Z,5.68
2022-11-06T00:38:26.254Z,5.72
2022-11-06T00:41:29.583Z,5.85
2022-11-06T00:44:32.321Z,5.40
2022-11-06T00:47:35.689Z,6.57
2022-11-06T00:50:39.738Z,8.55
2022-11-06T00:53:43.812Z,5.93
2022-11-06T00:56:46.616Z,6.68
2022-11-06T00:59:49.605Z,8.55
2022-11-06T01:02:52.408Z,6.15
2022-11-06T01:05:55.480Z,6.25
2022-11-06T01:08:58.900Z,8.55
2022-11-06T01:12:17.160Z,5.10
2022-11-06T01:15:20.427Z,6.18
2022-11-06T01:18:23.597Z,7.40
2022-11-06T01:21:31.885Z,5.35
2022-11-06T01:24:35.280Z,5.35
2022-11-06T01:27:38.149Z,5.32
2022-11-06T01:30:41.263Z,6.87
2022-11-06T01:33:44.191Z,4.85
2022-11-06T01:36:47.238Z,6.07
2022-11-06T01:39:50.840Z,6.47
2022-11-06T01:42:54.170Z,9.10
2022-11-06T01:45:57.042Z,6.53
2022-11-06T01:49:05.033Z,6.30
2022-11-06T01:52:12.120Z,4.85
2022-11-06T01:55:21.511Z,6.20
2022-11-06T01:58:25.738Z,6.00
2022-11-06T02:01:29.131Z,7.50
2022-11-06T02:04:52.248Z,6.28
2022-11-06T02:07:56.764Z,5.72
2022-11-06T02:10:59.835Z,5.50
2022-11-06T02:14:10.266Z,6.82
2022-11-06T02:17:27.218Z,6.65
2022-11-06T02:20:42.107Z,6.55
2022-11-06T02:24:19.979Z,7.80
2022-11-06T02:27:23.935Z,5.57
2022-11-06T02:30:27.272Z,6.00
2022-11-06T02:33:34.405Z,6.25
2022-11-06T02:36:42.891Z,5.32
2022-11-06T02:39:46.440Z,9.95
2022-11-06T02:42:52.596Z,8.15
2022-11-06T02:45:58.445Z,5.90
2022-11-06T02:49:11.464Z,6.37
2022-11-06T02:52:26.817Z,6.43
2022-11-06T02:58:49.002Z,5.57
2022-11-06T03:01:56.506Z,12.77
2022-11-06T03:05:03.756Z,8.57
2022-11-06T03:08:16.737Z,5.90
2022-11-06T03:11:31.412Z,6.05
2022-11-06T03:15:04.772Z,7.62
2022-11-06T03:18:30.823Z,6.35
2022-11-06T03:21:40.729Z,8.27
2022-11-06T03:24:50.438Z,7.10
2022-11-06T03:28:02.632Z,7.45
2022-11-06T03:31:09.454Z,7.50
2022-11-06T03:34:15.986Z,6.00
2022-11-06T03:37:27.814Z,7.87
2022-11-06T03:40:32.811Z,7.65
2022-11-06T03:43:36.860Z,8.75
2022-11-06T03:46:47.211Z,8.00
2022-11-06T03:49:57.029Z,9.27
2022-11-06T03:53:10.296Z,10.88
2022-11-06T03:56:18.489Z,11.65
2022-11-06T03:59:25.386Z,10.90
2022-11-06T04:02:32.216Z,8.15
2022-11-06T04:05:49.019Z,7.05
2022-11-06T04:09:11.746Z,9.10
2022-11-06T04:12:37.569Z,7.03
2022-11-06T04:15:44.534Z,6.78
2022-11-06T04:18:47.594Z,6.57
2022-11-06T04:22:15.295Z,7.82
2022-11-06T04:26:01.887Z,4.87
2022-11-06T04:29:38.483Z,7.80
2022-11-06T04:32:41.443Z,6.05
2022-11-06T04:36:06.538Z,5.78
2022-11-06T04:39:24.800Z,7.87
2022-11-06T04:42:43.062Z,7.60
2022-11-06T04:45:52.568Z,6.43
2022-11-06T04:48:55.380Z,5.93
2022-11-06T04:52:00.431Z,6.87
2022-11-06T04:55:04.552Z,6.30
2022-11-06T04:58:07.655Z,5.07
2022-11-06T05:01:11.545Z,6.07
2022-11-06T05:04:14.674Z,5.10
2022-11-06T05:07:17.782Z,8.63
2022-11-06T05:10:20.767Z,6.93
2022-11-06T05:13:23.464Z,8.43
2022-11-06T05:16:26.502Z,6.25
2022-11-06T05:19:29.198Z,7.50
2022-11-06T05:22:50.678Z,8.27
2022-11-06T05:25:53.207Z,8.93
2022-11-06T05:28:56.014Z,9.82
2022-11-06T05:31:58.802Z,7.62
2022-11-06T05:35:01.974Z,6.72
2022-11-06T05:38:04.775Z,8.63
2022-11-06T05:41:07.823Z,9.23
2022-11-06T05:44:10.690Z,7.35
2022-11-06T05:47:13.696Z,9.77
2022-11-06T05:50:16.759Z,6.50
2022-11-06T05:53:24.156Z,6.90
2022-11-06T05:56:27.012Z,8.25
2022-11-06T05:59:30.345Z,9.60
2022-11-06T06:02:33.353Z,9.70
2022-11-06T06:05:36.420Z,9.70
2022-11-06T06:08:39.130Z,9.55
2022-11-06T06:11:42.194Z,7.28
2022-11-06T06:14:50.147Z,8.43
2022-11-06T06:17:53.463Z,8.00
2022-11-06T06:20:58.972Z,10.50
2022-11-06T06:24:02.413Z,8.65
2022-11-06T06:27:05.459Z,8.88
2022-11-06T06:30:09.409Z,12.00
2022-11-06T06:33:12.393Z,9.73
2022-11-06T06:36:15.595Z,11.73
2022-11-06T06:39:22.066Z,9.93
2022-11-06T06:42:28.726Z,11.52
2022-11-06T06:45:33.848Z,11.35
2022-11-06T06:48:36.940Z,13.00
2022-11-06T06:51:40.064Z,10.90
2022-11-06T06:54:43.222Z,12.90
2022-11-06T06:57:45.961Z,11.68
2022-11-06T07:00:49.535Z,14.68
2022-11-06T07:03:52.531Z,11.20
2022-11-06T07:06:56.328Z,13.25
2022-11-06T07:09:59.093Z,8.30
2022-11-06T07:13:03.567Z,11.85
2022-11-06T07:16:09.090Z,8.95
2022-11-06T07:19:12.111Z,8.73
2022-11-06T07:22:14.886Z,8.52
2022-11-06T07:25:17.828Z,9.15
2022-11-06T07:28:21.171Z,10.18
2022-11-06T07:31:24.276Z,8.52
2022-11-06T07:34:27.103Z,9.48
2022-11-06T07:37:30.521Z,7.78
2022-11-06T07:40:34.212Z,7.55
2022-11-06T07:43:37.931Z,11.37
2022-11-06T07:46:40.721Z,13.77
2022-11-06T07:49:49.676Z,13.40
2022-11-06T07:52:53.999Z,13.98
2022-11-06T07:55:57.420Z,13.80
2022-11-06T07:59:00.157Z,14.90
2022-11-06T08:02:03.409Z,12.63
2022-11-06T08:05:06.964Z,13.35
2022-11-06T08:08:10.214Z,11.40
2022-11-06T08:11:14.164Z,9.88
2022-11-06T08:14:17.531Z,10.82
2022-11-06T08:17:20.589Z,12.90
2022-11-06T08:20:23.283Z,15.35
2022-11-06T08:23:26.521Z,14.93
2022-11-06T08:26:30.383Z,13.10
2022-11-06T08:29:39.921Z,14.90
2022-11-06T08:32:44.142Z,19.90
2022-11-06T08:35:47.557Z,18.50
2022-11-06T08:38:51.633Z,19.33
2022-11-06T08:41:54.758Z,15.50
2022-11-06T08:44:58.756Z,15.73
2022-11-06T08:48:03.181Z,17.02
2022-11-06T08:51:06.180Z,14.60
2022-11-06T08:54:12.141Z,16.12
2022-11-06T08:57:15.452Z,16.77
2022-11-06T09:00:18.714Z,15.63
2022-11-06T09:03:21.984Z,13.48
2022-11-06T09:06:25.630Z,16.10
2022-11-06T09:09:32.161Z,14.90
2022-11-06T09:12:35.238Z,17.73
2022-11-06T09:15:38.463Z,15.00
2022-11-06T09:18:41.432Z,14.85
2022-11-06T09:21:44.346Z,13.15
2022-11-06T09:25:03.026Z,13.75
2022-11-06T09:28:06.088Z,14.10
2022-11-06T09:31:09.863Z,14.30
2022-11-06T09:34:12.677Z,17.17
2022-11-06T09:37:15.725Z,14.95
2022-11-06T09:40:32.163Z,14.85
2022-11-06T09:44:09.479Z,15.60
2022-11-06T09:47:19.311Z,15.43
2022-11-06T09:50:27.267Z,15.77
2022-11-06T09:53:38.329Z,13.93
2022-11-06T09:56:43.551Z,13.32
2022-11-06T09:59:46.993Z,12.37
2022-11-06T10:02:54.986Z,13.75
2022-11-06T10:05:58.323Z,13.23
2022-11-06T10:09:03.981Z,12.95
2022-11-06T10:12:28.069Z,11.45
2022-11-06T10:15:39.389Z,19.23
2022-11-06T10:19:00.927Z,12.70
2022-11-06T10:22:12.801Z,9.38
2022-11-06T10:25:24.115Z,9.20
2022-11-06T10:28:45.792Z,14.27
2022-11-06T10:32:04.292Z,8.77
2022-11-06T10:35:18.564Z,10.68
2022-11-06T10:38:30.205Z,8.77
2022-11-06T10:41:35.295Z,7.78
2022-11-06T10:44:46.250Z,8.40
2022-11-06T10:47:52.839Z,9.05
2022-11-06T10:51:33.208Z,10.50
2022-11-06T10:55:19.104Z,8.85
2022-11-06T10:58:23.999Z,10.82
2022-11-06T11:01:26.868Z,7.75
2022-11-06T11:04:33.737Z,9.18
2022-11-06T11:07:36.681Z,7.12
2022-11-06T11:10:39.991Z,8.48
2022-11-06T11:13:47.975Z,9.98
2022-11-06T11:16:51.128Z,10.35
2022-11-06T11:19:53.976Z,9.68
2022-11-06T11:23:15.456Z,9.57
2022-11-06T11:26:30.225Z,10.30
2022-11-06T11:29:41.368Z,13.00
2022-11-06T11:32:44.307Z,11.10
2022-11-06T11:35:49.821Z,11.85
2022-11-06T11:38:53.178Z,15.68
2022-11-06T11:42:26.182Z,14.00
2022-11-06T11:45:29.144Z,13.32
2022-11-06T11:48:52.534Z,13.52
2022-11-06T11:51:56.759Z,12.32
2022-11-06T11:55:00.250Z,15.88
2022-11-06T11:58:03.529Z,12.23
2022-11-06T12:01:10.499Z,15.57
2022-11-06T12:04:23.045Z,11.00
2022-11-06T12:07:46.381Z,13.90
2022-11-06T12:10:50.604Z,11.60
2022-11-06T12:14:21.729Z,11.65
2022-11-06T12:17:26.741Z,10.85
2022-11-06T12:23:45.932Z,11.75
2022-11-06T12:26:52.709Z,13.80
2022-11-06T12:30:03.412Z,10.60
2022-11-06T12:33:16.719Z,10.00
2022-11-06T12:36:39.591Z,10.85
2022-11-06T12:39:44.781Z,8.90
2022-11-06T12:46:01.693Z,12.32
2022-11-06T12:49:42.726Z,10.23
2022-11-06T12:53:16.218Z,11.63
2022-11-06T12:56:25.484Z,9.50
2022-11-06T13:00:13.542Z,9.18
2022-11-06T13:03:38.300Z,8.15
2022-11-06T13:07:10.381Z,7.20
2022-11-06T13:10:41.565Z,7.55
2022-11-06T13:13:47.373Z,8.18
2022-11-06T13:17:05.721Z,8.88
2022-11-06T13:20:18.071Z,8.65
2022-11-06T13:23:38.847Z,12.65
2022-11-06T13:27:00.917Z,13.73
2022-11-06T13:30:19.589Z,13.05
2022-11-06T13:33:27.980Z,12.40
2022-11-06T13:36:32.777Z,16.02
2022-11-06T13:39:50.253Z,13.25
2022-11-06T13:43:03.010Z,13.82
2022-11-06T13:46:37.448Z,13.38
2022-11-06T13:49:43.622Z,12.77
2022-11-06T13:53:08.065Z,13.13
2022-11-06T13:56:36.359Z,15.57
2022-11-06T14:00:16.505Z,15.35
2022-11-06T14:03:30.593Z,14.48
2022-11-06T14:06:34.228Z,11.60
2022-11-06T14:09:41.846Z,14.55
2022-11-06T14:12:48.434Z,13.00
2022-11-06T14:15:59.497Z,10.73
2022-11-06T14:19:24.088Z,12.82
2022-11-06T14:22:38.459Z,12.77
2022-11-06T14:25:46.916Z,14.27
2022-11-06T14:28:50.170Z,12.20
2022-11-06T14:32:02.727Z,12.05
2022-11-06T14:35:28.675Z,15.05
2022-11-06T14:38:33.955Z,14.52
2022-11-06T14:41:40.123Z,14.35
2022-11-06T14:44:47.097Z,11.30
2022-11-06T14:47:54.492Z,17.53
2022-11-06T14:50:58.028Z,14.55
2022-11-06T14:54:05.997Z,15.40
2022-11-06T14:57:09.844Z,14.63
2022-11-06T15:04:02.820Z,10.48
2022-11-06T15:07:08.945Z,13.02
2022-11-06T15:10:44.167Z,12.02
2022-11-06T15:17:06.351Z,10.90
2022-11-06T15:20:22.423Z,13.40
2022-11-06T15:23:30.954Z,13.52
2022-11-06T15:26:39.649Z,14.98
2022-11-06T15:29:45.422Z,11.45
2022-11-06T15:32:49.436Z,14.02
2022-11-06T15:35:55.748Z,13.98
2022-11-06T15:39:00.192Z,11.77
2022-11-06T15:42:08.194Z,12.67
2022-11-06T15:45:16.148Z,13.35
2022-11-06T15:48:23.855Z,15.68
2022-11-06T15:54:38.012Z,13.17
2022-11-06T15:57:41.970Z,15.38
2022-11-06T16:00:46.358Z,12.40
2022-11-06T16:03:54.591Z,16.40
2022-11-06T16:06:57.678Z,16.60
2022-11-06T16:10:01.328Z,18.33
2022-11-06T16:13:05.767Z,16.90
2022-11-06T16:16:36.555Z,17.42
2022-11-06T16:19:39.885Z,14.32
2022-11-06T16:22:43.291Z,15.02
2022-11-06T16:25:46.625Z,12.13
2022-11-06T16:28:52.112Z,14.40
2022-11-06T16:32:05.354Z,12.15
2022-11-06T16:38:41.696Z,13.95
2022-11-06T16:41:58.515Z,19.12
2022-11-06T16:45:09.677Z,18.00
2022-11-06T16:48:13.769Z,16.42
2022-11-06T16:51:31.900Z,16.10
2022-11-06T16:54:35.738Z,26.58
2022-11-06T16:57:49.595Z,27.47
2022-11-06T17:01:01.674Z,18.98
2022-11-06T17:04:05.099Z,21.60
2022-11-06T17:07:18.941Z,14.93
2022-11-06T17:10:35.633Z,11.38
2022-11-06T17:13:42.181Z,11.35
2022-11-06T17:16:50.984Z,11.90
2022-11-06T17:19:54.596Z,10.82
2022-11-06T17:22:58.227Z,11.07
2022-11-06T17:26:23.869Z,15.57
2022-11-06T17:29:28.118Z,20.85
2022-11-06T17:32:31.647Z,20.65
2022-11-06T17:35:35.048Z,20.75
2022-11-06T17:38:38.697Z,22.30
2022-11-06T17:41:42.120Z,18.77
2022-11-06T17:44:45.803Z,20.02
2022-11-06T17:48:06.714Z,17.65
2022-11-06T17:51:29.009Z,18.15
2022-11-06T17:54:33.890Z,16.52
2022-11-06T18:00:40.885Z,18.98
2022-11-06T18:03:45.754Z,18.92
2022-11-06T18:06:51.417Z,21.27
2022-11-06T18:09:55.743Z,21.02
2022-11-06T18:12:58.959Z,17.50
2022-11-06T18:16:02.918Z,34.47
2022-11-06T18:19:07.966Z,27.35
2022-11-06T18:22:11.686Z,20.60
2022-11-06T18:25:15.278Z,16.90
2022-11-06T18:28:20.530Z,13.27
2022-11-06T18:31:24.302Z,17.15
2022-11-06T18:34:28.227Z,15.63
2022-11-06T18:37:32.782Z,14.30
2022-11-06T18:40:41.502Z,15.32
2022-11-06T18:43:49.087Z,16.80
2022-11-06T18:46:52.880Z,14.80
2022-11-06T18:49:56.368Z,14.87
2022-11-06T18:53:00.197Z,15.77
2022-11-06T18:56:05.904Z,16.00
2022-11-06T18:59:17.830Z,14.95
2022-11-06T19:02:22.625Z,14.93
2022-11-06T19:05:27.683Z,19.25
2022-11-06T19:08:32.582Z,14.57
2022-11-06T19:11:36.751Z,19.83
2022-11-06T19:14:40.503Z,14.30
2022-11-06T19:17:45.715Z,21.00
2022-11-06T19:20:50.429Z,13.37
2022-11-06T19:24:00.231Z,14.43
2022-11-06T19:27:05.861Z,11.93
2022-11-06T19:30:11.066Z,17.10
2022-11-06T19:33:15.354Z,17.73
2022-11-06T19:36:19.610Z,15.15
2022-11-06T19:39:24.585Z,15.48
2022-11-06T19:42:30.567Z,14.87
2022-11-06T19:45:35.650Z,11.48
2022-11-06T19:48:39.466Z,10.93
2022-11-06T19:51:43.565Z,12.98
2022-11-06T19:57:50.976Z,9.65
2022-11-06T20:00:54.552Z,6.65
2022-11-06T20:03:58.899Z,8.73
2022-11-06T20:07:02.487Z,18.08
2022-11-06T20:10:07.601Z,12.60
2022-11-06T20:13:11.319Z,11.15
2022-11-06T20:16:19.397Z,20.15
2022-11-06T20:19:22.901Z,26.92
2022-11-06T20:22:26.710Z,29.12
2022-11-06T20:25:31.296Z,23.42
2022-11-06T20:28:36.744Z,27.52
2022-11-06T20:31:41.079Z,28.80
2022-11-06T20:34:46.441Z,34.88
2022-11-06T20:37:51.162Z,37.13
2022-11-06T20:40:56.778Z,39.03
2022-11-06T20:43:59.887Z,33.08
2022-11-06T20:47:03.833Z,27.90
2022-11-06T20:50:07.516Z,25.60
2022-11-06T20:53:11.493Z,25.80
2022-11-06T20:56:17.913Z,20.77
2022-11-06T20:59:22.422Z,17.77
2022-11-06T21:02:26.201Z,34.55
2022-11-06T21:05:30.927Z,21.52
2022-11-06T21:08:37.097Z,16.53
2022-11-06T21:11:41.683Z,22.58
2022-11-06T21:14:47.835Z,17.77
2022-11-06T21:17:51.487Z,20.73
2022-11-06T21:20:55.384Z,20.58
2022-11-06T21:24:02.079Z,17.87
2022-11-06T21:27:06.260Z,21.48
2022-11-06T21:30:10.096Z,24.30
2022-11-06T21:33:13.936Z,26.75
2022-11-06T21:36:20.717Z,18.80
2022-11-06T21:39:24.070Z,18.80
2022-11-06T21:42:27.388Z,16.60
2022-11-06T21:45:30.515Z,18.92
2022-11-06T21:48:45.962Z,22.52
2022-11-06T21:51:50.738Z,49.22
2022-11-06T21:55:12.344Z,47.90
2022-11-06T21:58:16.137Z,32.10
2022-11-06T22:01:19.977Z,26.23
2022-11-06T22:04:23.405Z,17.48
2022-11-06T22:07:26.110Z,17.52
2022-11-06T22:10:29.401Z,14.07
2022-11-06T22:13:32.402Z,14.95
2022-11-06T22:16:38.371Z,13.43
2022-11-06T22:19:41.445Z,13.48
2022-11-06T22:22:44.603Z,11.00
2022-11-06T22:25:47.422Z,9.93
2022-11-06T22:28:59.073Z,11.43
2022-11-06T22:32:01.866Z,10.85
2022-11-06T22:35:05.222Z,11.77
2022-11-06T22:38:10.529Z,11.45
2022-11-06T22:41:15.978Z,14.95
2022-11-06T22:47:21.705Z,14.65
2022-11-06T22:50:24.450Z,17.40
2022-11-06T22:53:27.510Z,25.45
2022-11-06T22:56:31.062Z,33.25
2022-11-06T22:59:34.197Z,32.22
2022-11-06T23:02:36.977Z,29.05
2022-11-06T23:05:40.173Z,33.35
2022-11-06T23:08:46.766Z,24.87
2022-11-06T23:11:50.825Z,20.62
2022-11-06T23:14:53.591Z,22.00
2022-11-06T23:17:57.964Z,23.30
2022-11-06T23:21:01.109Z,22.50
2022-11-06T23:24:06.071Z,18.92
2022-11-06T23:27:10.365Z,20.70
2022-11-06T23:30:15.730Z,22.67
2022-11-06T23:33:18.600Z,19.40
2022-11-06T23:36:21.592Z,18.15
2022-11-06T23:39:24.359Z,20.52
2022-11-06T23:42:27.823Z,19.95
2022-11-06T23:45:49.331Z,21.80
2022-11-06T23:48:53.766Z,16.85
2022-11-06T23:51:56.513Z,14.10
2022-11-06T23:54:59.509Z,14.98
2022-11-06T23:58:02.488Z,17.33
